sensor_id;sensor_type;location;lat;lon;timestamp;temperature;humidity
71754;DHT22;59593;51.716;7.016;2022-09-21T00:00:32;8.30;99.90
71754;DHT22;59593;51.716;7.016;2022-09-21T00:02:57;8.30;99.90
71754;DHT22;59593;51.716;7.016;2022-09-21T00:05:23;8.20;99.90
71754;DHT22;59593;51.716;7.016;2022-09-21T00:07:49;8.20;99.90
71754;DHT22;59593;51.716;7.016;2022-09-21T00:10:15;8.10;99.90
71754;DHT22;59593;51.716;7.016;2022-09-21T00:12:41;8.10;99.90
71754;DHT22;59593;51.716;7.016;2022-09-21T00:15:08;8.10;99.90
71754;DHT22;59593;51.716;7.016;2022-09-21T00:17:36;8.00;99.90
71754;DHT22;59593;51.716;7.016;2022-09-21T00:20:05;8.00;99.90
71754;DHT22;59593;51.716;7.016;2022-09-21T00:22:34;7.90;99.90
71754;DHT22;59593;51.716;7.016;2022-09-21T00:25:00;7.90;99.90
71754;DHT22;59593;51.716;7.016;2022-09-21T00:27:30;7.90;99.90
71754;DHT22;59593;51.716;7.016;2022-09-21T00:29:57;8.00;99.90
71754;DHT22;59593;51.716;7.016;2022-09-21T00:32:23;8.00;99.90
71754;DHT22;59593;51.716;7.016;2022-09-21T00:34:50;8.00;99.90
71754;DHT22;59593;51.716;7.016;2022-09-21T00:37:17;8.00;99.90
71754;DHT22;59593;51.716;7.016;2022-09-21T00:39:42;8.00;99.90
71754;DHT22;59593;51.716;7.016;2022-09-21T00:42:23;7.90;99.90
71754;DHT22;59593;51.716;7.016;2022-09-21T00:44:50;7.80;99.90
71754;DHT22;59593;51.716;7.016;2022-09-21T00:47:19;7.70;99.90
71754;DHT22;59593;51.716;7.016;2022-09-21T00:49:49;7.60;99.90
71754;DHT22;59593;51.716;7.016;2022-09-21T00:52:17;7.50;99.90
71754;DHT22;59593;51.716;7.016;2022-09-21T00:57:33;7.30;99.90
71754;DHT22;59593;51.716;7.016;2022-09-21T01:00:01;7.40;99.90
71754;DHT22;59593;51.716;7.016;2022-09-21T01:02:27;7.50;99.90
71754;DHT22;59593;51.716;7.016;2022-09-21T01:04:53;7.50;99.90
71754;DHT22;59593;51.716;7.016;2022-09-21T01:07:23;7.50;99.90
71754;DHT22;59593;51.716;7.016;2022-09-21T01:09:53;7.50;99.90
71754;DHT22;59593;51.716;7.016;2022-09-21T01:23:22;7.40;99.90
71754;DHT22;59593;51.716;7.016;2022-09-21T01:26:11;7.40;99.90
71754;DHT22;59593;51.716;7.016;2022-09-21T01:31:54;7.40;99.90
71754;DHT22;59593;51.716;7.016;2022-09-21T01:34:29;7.40;99.90
71754;DHT22;59593;51.716;7.016;2022-09-21T01:37:02;7.40;99.90
71754;DHT22;59593;51.716;7.016;2022-09-21T01:39:29;7.40;99.90
71754;DHT22;59593;51.716;7.016;2022-09-21T01:41:57;7.40;99.90
71754;DHT22;59593;51.716;7.016;2022-09-21T01:44:27;7.30;99.90
71754;DHT22;59593;51.716;7.016;2022-09-21T01:47:00;7.30;99.90
71754;DHT22;59593;51.716;7.016;2022-09-21T01:49:31;7.30;99.90
71754;DHT22;59593;51.716;7.016;2022-09-21T01:52:10;7.30;99.90
71754;DHT22;59593;51.716;7.016;2022-09-21T01:54:41;7.30;99.90
71754;DHT22;59593;51.716;7.016;2022-09-21T01:57:19;7.30;99.90
71754;DHT22;59593;51.716;7.016;2022-09-21T01:59:52;7.20;99.90
71754;DHT22;59593;51.716;7.016;2022-09-21T02:02:43;7.10;99.90
71754;DHT22;59593;51.716;7.016;2022-09-21T02:05:10;7.10;99.90
71754;DHT22;59593;51.716;7.016;2022-09-21T02:07:37;7.10;99.90
71754;DHT22;59593;51.716;7.016;2022-09-21T02:10:06;7.00;99.90
71754;DHT22;59593;51.716;7.016;2022-09-21T02:12:34;7.00;99.90
71754;DHT22;59593;51.716;7.016;2022-09-21T02:15:00;7.10;99.90
71754;DHT22;59593;51.716;7.016;2022-09-21T02:17:31;7.10;99.90
71754;DHT22;59593;51.716;7.016;2022-09-21T02:20:27;7.00;99.90
71754;DHT22;59593;51.716;7.016;2022-09-21T02:28:36;6.90;99.90
71754;DHT22;59593;51.716;7.016;2022-09-21T02:31:14;6.90;99.90
71754;DHT22;59593;51.716;7.016;2022-09-21T02:33:52;6.90;99.90
71754;DHT22;59593;51.716;7.016;2022-09-21T02:36:42;6.90;99.90
71754;DHT22;59593;51.716;7.016;2022-09-21T02:39:27;6.90;99.90
71754;DHT22;59593;51.716;7.016;2022-09-21T02:42:09;6.90;99.90
71754;DHT22;59593;51.716;7.016;2022-09-21T02:44:42;6.90;99.90
71754;DHT22;59593;51.716;7.016;2022-09-21T02:47:16;6.90;99.90
71754;DHT22;59593;51.716;7.016;2022-09-21T02:49:47;6.90;99.90
71754;DHT22;59593;51.716;7.016;2022-09-21T02:52:17;6.90;99.90
71754;DHT22;59593;51.716;7.016;2022-09-21T02:54:47;6.90;99.90
71754;DHT22;59593;51.716;7.016;2022-09-21T02:57:16;6.90;99.90
71754;DHT22;59593;51.716;7.016;2022-09-21T02:59:43;7.00;99.90
71754;DHT22;59593;51.716;7.016;2022-09-21T03:02:10;6.90;99.90
71754;DHT22;59593;51.716;7.016;2022-09-21T03:04:38;6.80;99.90
71754;DHT22;59593;51.716;7.016;2022-09-21T03:07:06;6.80;99.90
71754;DHT22;59593;51.716;7.016;2022-09-21T03:09:31;6.80;99.90
71754;DHT22;59593;51.716;7.016;2022-09-21T03:11:57;6.90;99.90
71754;DHT22;59593;51.716;7.016;2022-09-21T03:14:23;6.90;99.90
71754;DHT22;59593;51.716;7.016;2022-09-21T03:16:49;6.90;99.90
71754;DHT22;59593;51.716;7.016;2022-09-21T03:19:14;6.90;99.90
71754;DHT22;59593;51.716;7.016;2022-09-21T03:21:40;6.90;99.90
71754;DHT22;59593;51.716;7.016;2022-09-21T03:24:06;6.80;99.90
71754;DHT22;59593;51.716;7.016;2022-09-21T03:26:32;6.90;99.90
71754;DHT22;59593;51.716;7.016;2022-09-21T03:28:58;6.80;99.90
71754;DHT22;59593;51.716;7.016;2022-09-21T03:31:23;6.80;99.90
71754;DHT22;59593;51.716;7.016;2022-09-21T03:33:49;6.80;99.90
71754;DHT22;59593;51.716;7.016;2022-09-21T03:36:15;6.90;99.90
71754;DHT22;59593;51.716;7.016;2022-09-21T03:38:41;6.80;99.90
71754;DHT22;59593;51.716;7.016;2022-09-21T03:41:07;6.80;99.90
71754;DHT22;59593;51.716;7.016;2022-09-21T03:43:32;6.80;99.90
71754;DHT22;59593;51.716;7.016;2022-09-21T03:45:58;6.80;99.90
71754;DHT22;59593;51.716;7.016;2022-09-21T03:48:24;6.70;99.90
71754;DHT22;59593;51.716;7.016;2022-09-21T03:50:49;6.70;99.90
71754;DHT22;59593;51.716;7.016;2022-09-21T03:53:16;6.60;99.90
71754;DHT22;59593;51.716;7.016;2022-09-21T03:55:41;6.60;99.90
71754;DHT22;59593;51.716;7.016;2022-09-21T03:58:07;6.70;99.90
71754;DHT22;59593;51.716;7.016;2022-09-21T04:00:33;6.70;99.90
71754;DHT22;59593;51.716;7.016;2022-09-21T04:02:59;6.70;99.90
71754;DHT22;59593;51.716;7.016;2022-09-21T04:05:26;6.70;99.90
71754;DHT22;59593;51.716;7.016;2022-09-21T04:07:53;6.90;99.90
71754;DHT22;59593;51.716;7.016;2022-09-21T04:10:20;7.00;99.90
71754;DHT22;59593;51.716;7.016;2022-09-21T04:12:54;6.80;99.90
71754;DHT22;59593;51.716;7.016;2022-09-21T04:15:21;6.60;99.90
71754;DHT22;59593;51.716;7.016;2022-09-21T04:17:50;6.40;99.90
71754;DHT22;59593;51.716;7.016;2022-09-21T04:20:16;6.30;99.90
71754;DHT22;59593;51.716;7.016;2022-09-21T04:22:41;6.20;99.90
71754;DHT22;59593;51.716;7.016;2022-09-21T04:25:09;6.30;99.90
71754;DHT22;59593;51.716;7.016;2022-09-21T04:27:34;6.30;99.90
71754;DHT22;59593;51.716;7.016;2022-09-21T04:30:00;6.20;99.90
71754;DHT22;59593;51.716;7.016;2022-09-21T04:32:26;6.20;99.90
71754;DHT22;59593;51.716;7.016;2022-09-21T04:34:52;6.20;99.90
71754;DHT22;59593;51.716;7.016;2022-09-21T04:37:17;6.10;99.90
71754;DHT22;59593;51.716;7.016;2022-09-21T04:39:43;6.00;99.90
71754;DHT22;59593;51.716;7.016;2022-09-21T04:42:09;6.00;99.90
71754;DHT22;59593;51.716;7.016;2022-09-21T04:44:35;6.00;99.90
71754;DHT22;59593;51.716;7.016;2022-09-21T04:47:00;6.00;99.90
71754;DHT22;59593;51.716;7.016;2022-09-21T04:49:26;6.10;99.90
71754;DHT22;59593;51.716;7.016;2022-09-21T04:51:52;6.10;99.90
71754;DHT22;59593;51.716;7.016;2022-09-21T04:54:17;6.10;99.90
71754;DHT22;59593;51.716;7.016;2022-09-21T04:56:43;6.00;99.90
71754;DHT22;59593;51.716;7.016;2022-09-21T04:59:08;6.00;99.90
71754;DHT22;59593;51.716;7.016;2022-09-21T05:01:35;6.00;99.90
71754;DHT22;59593;51.716;7.016;2022-09-21T05:04:00;6.00;99.90
71754;DHT22;59593;51.716;7.016;2022-09-21T05:06:31;6.10;99.90
71754;DHT22;59593;51.716;7.016;2022-09-21T05:08:57;6.10;99.90
71754;DHT22;59593;51.716;7.016;2022-09-21T05:11:42;6.10;99.90
71754;DHT22;59593;51.716;7.016;2022-09-21T05:14:08;6.00;99.90
71754;DHT22;59593;51.716;7.016;2022-09-21T05:16:33;6.00;99.90
71754;DHT22;59593;51.716;7.016;2022-09-21T05:18:59;5.90;99.90
71754;DHT22;59593;51.716;7.016;2022-09-21T05:21:25;5.90;99.90
71754;DHT22;59593;51.716;7.016;2022-09-21T05:23:51;5.80;99.90
71754;DHT22;59593;51.716;7.016;2022-09-21T05:26:16;5.70;99.90
71754;DHT22;59593;51.716;7.016;2022-09-21T05:28:42;5.80;99.90
71754;DHT22;59593;51.716;7.016;2022-09-21T05:34:02;5.90;99.90
71754;DHT22;59593;51.716;7.016;2022-09-21T05:39:19;6.20;99.90
71754;DHT22;59593;51.716;7.016;2022-09-21T05:41:45;6.20;99.90
71754;DHT22;59593;51.716;7.016;2022-09-21T05:44:13;6.10;99.90
71754;DHT22;59593;51.716;7.016;2022-09-21T05:46:53;6.20;99.90
71754;DHT22;59593;51.716;7.016;2022-09-21T05:49:33;6.20;99.90
71754;DHT22;59593;51.716;7.016;2022-09-21T05:52:15;6.20;99.90
71754;DHT22;59593;51.716;7.016;2022-09-21T05:54:58;6.20;99.90
71754;DHT22;59593;51.716;7.016;2022-09-21T06:00:26;6.30;99.90
71754;DHT22;59593;51.716;7.016;2022-09-21T06:03:24;6.40;99.90
71754;DHT22;59593;51.716;7.016;2022-09-21T06:05:50;6.40;99.90
71754;DHT22;59593;51.716;7.016;2022-09-21T06:08:16;6.40;99.90
71754;DHT22;59593;51.716;7.016;2022-09-21T06:10:42;6.40;99.90
71754;DHT22;59593;51.716;7.016;2022-09-21T06:13:08;6.40;99.90
71754;DHT22;59593;51.716;7.016;2022-09-21T06:15:34;6.40;99.90
71754;DHT22;59593;51.716;7.016;2022-09-21T06:18:06;6.50;99.90
71754;DHT22;59593;51.716;7.016;2022-09-21T06:20:32;6.50;99.90
71754;DHT22;59593;51.716;7.016;2022-09-21T06:23:05;6.60;99.90
71754;DHT22;59593;51.716;7.016;2022-09-21T06:25:31;6.60;99.90
71754;DHT22;59593;51.716;7.016;2022-09-21T06:28:04;6.70;99.90
71754;DHT22;59593;51.716;7.016;2022-09-21T06:30:31;6.80;99.90
71754;DHT22;59593;51.716;7.016;2022-09-21T06:32:59;6.90;99.90
71754;DHT22;59593;51.716;7.016;2022-09-21T06:35:29;7.00;99.90
71754;DHT22;59593;51.716;7.016;2022-09-21T06:38:04;7.10;99.90
71754;DHT22;59593;51.716;7.016;2022-09-21T06:40:31;7.10;99.90
71754;DHT22;59593;51.716;7.016;2022-09-21T06:42:58;7.10;99.90
71754;DHT22;59593;51.716;7.016;2022-09-21T06:45:25;7.20;99.90
71754;DHT22;59593;51.716;7.016;2022-09-21T06:47:50;7.20;99.90
71754;DHT22;59593;51.716;7.016;2022-09-21T06:50:16;7.20;99.90
71754;DHT22;59593;51.716;7.016;2022-09-21T06:52:42;7.40;99.90
71754;DHT22;59593;51.716;7.016;2022-09-21T06:55:08;7.40;99.90
71754;DHT22;59593;51.716;7.016;2022-09-21T06:57:35;7.50;99.90
71754;DHT22;59593;51.716;7.016;2022-09-21T07:00:01;7.60;99.90
71754;DHT22;59593;51.716;7.016;2022-09-21T07:02:27;7.70;99.90
71754;DHT22;59593;51.716;7.016;2022-09-21T07:04:52;7.80;99.90
71754;DHT22;59593;51.716;7.016;2022-09-21T07:07:19;7.90;99.90
71754;DHT22;59593;51.716;7.016;2022-09-21T07:09:44;8.00;99.90
71754;DHT22;59593;51.716;7.016;2022-09-21T07:12:10;8.10;99.90
71754;DHT22;59593;51.716;7.016;2022-09-21T07:14:35;8.20;99.90
71754;DHT22;59593;51.716;7.016;2022-09-21T07:17:01;8.30;99.90
71754;DHT22;59593;51.716;7.016;2022-09-21T07:19:26;8.40;99.90
71754;DHT22;59593;51.716;7.016;2022-09-21T07:21:53;8.50;99.90
71754;DHT22;59593;51.716;7.016;2022-09-21T07:24:19;8.70;99.90
71754;DHT22;59593;51.716;7.016;2022-09-21T07:26:44;8.80;99.90
71754;DHT22;59593;51.716;7.016;2022-09-21T07:29:10;9.00;99.90
71754;DHT22;59593;51.716;7.016;2022-09-21T07:31:36;9.10;99.90
71754;DHT22;59593;51.716;7.016;2022-09-21T07:34:02;9.10;99.90
71754;DHT22;59593;51.716;7.016;2022-09-21T07:36:27;9.20;99.90
71754;DHT22;59593;51.716;7.016;2022-09-21T07:38:53;9.40;99.90
71754;DHT22;59593;51.716;7.016;2022-09-21T07:41:19;9.50;99.90
71754;DHT22;59593;51.716;7.016;2022-09-21T07:43:44;9.60;99.90
71754;DHT22;59593;51.716;7.016;2022-09-21T07:46:12;9.70;99.90
71754;DHT22;59593;51.716;7.016;2022-09-21T07:48:39;9.90;99.90
71754;DHT22;59593;51.716;7.016;2022-09-21T07:51:07;10.10;99.90
71754;DHT22;59593;51.716;7.016;2022-09-21T07:53:35;10.20;99.90
71754;DHT22;59593;51.716;7.016;2022-09-21T07:56:05;10.20;99.90
71754;DHT22;59593;51.716;7.016;2022-09-21T07:58:32;10.20;99.90
71754;DHT22;59593;51.716;7.016;2022-09-21T08:01:16;10.40;99.90
71754;DHT22;59593;51.716;7.016;2022-09-21T08:03:42;10.60;99.90
71754;DHT22;59593;51.716;7.016;2022-09-21T08:06:08;10.60;99.90
71754;DHT22;59593;51.716;7.016;2022-09-21T08:08:34;10.60;99.90
71754;DHT22;59593;51.716;7.016;2022-09-21T08:11:04;10.60;99.90
71754;DHT22;59593;51.716;7.016;2022-09-21T08:13:30;10.80;99.90
71754;DHT22;59593;51.716;7.016;2022-09-21T08:16:00;10.90;99.90
71754;DHT22;59593;51.716;7.016;2022-09-21T08:18:27;10.90;99.90
71754;DHT22;59593;51.716;7.016;2022-09-21T08:20:57;11.10;99.90
71754;DHT22;59593;51.716;7.016;2022-09-21T08:23:23;11.20;99.90
71754;DHT22;59593;51.716;7.016;2022-09-21T08:25:51;11.30;99.90
71754;DHT22;59593;51.716;7.016;2022-09-21T08:28:16;11.40;99.90
71754;DHT22;59593;51.716;7.016;2022-09-21T08:30:43;11.50;99.90
71754;DHT22;59593;51.716;7.016;2022-09-21T08:33:08;11.50;99.90
71754;DHT22;59593;51.716;7.016;2022-09-21T08:35:34;11.70;99.90
71754;DHT22;59593;51.716;7.016;2022-09-21T08:38:01;11.80;99.90
71754;DHT22;59593;51.716;7.016;2022-09-21T08:40:27;11.90;99.90
71754;DHT22;59593;51.716;7.016;2022-09-21T08:43:03;11.90;99.90
71754;DHT22;59593;51.716;7.016;2022-09-21T08:45:38;12.00;99.90
71754;DHT22;59593;51.716;7.016;2022-09-21T08:48:19;12.10;99.90
71754;DHT22;59593;51.716;7.016;2022-09-21T08:50:53;12.10;99.90
71754;DHT22;59593;51.716;7.016;2022-09-21T08:55:58;12.50;99.90
71754;DHT22;59593;51.716;7.016;2022-09-21T08:58:26;12.70;99.90
71754;DHT22;59593;51.716;7.016;2022-09-21T09:04:15;12.90;99.90
71754;DHT22;59593;51.716;7.016;2022-09-21T09:07:45;13.00;99.90
71754;DHT22;59593;51.716;7.016;2022-09-21T09:10:20;13.30;99.90
71754;DHT22;59593;51.716;7.016;2022-09-21T09:19:03;13.40;99.90
71754;DHT22;59593;51.716;7.016;2022-09-21T09:21:38;13.50;99.90
71754;DHT22;59593;51.716;7.016;2022-09-21T09:24:57;13.70;99.90
71754;DHT22;59593;51.716;7.016;2022-09-21T09:27:11;13.90;99.90
71754;DHT22;59593;51.716;7.016;2022-09-21T09:32:53;13.90;99.90
71754;DHT22;59593;51.716;7.016;2022-09-21T09:35:53;14.00;99.90
71754;DHT22;59593;51.716;7.016;2022-09-21T09:38:45;14.10;99.90
71754;DHT22;59593;51.716;7.016;2022-09-21T09:47:34;14.60;99.90
71754;DHT22;59593;51.716;7.016;2022-09-21T09:50:29;14.80;99.90
71754;DHT22;59593;51.716;7.016;2022-09-21T09:53:19;14.90;99.90
71754;DHT22;59593;51.716;7.016;2022-09-21T09:55:51;14.50;99.90
71754;DHT22;59593;51.716;7.016;2022-09-21T09:58:52;14.60;99.90
71754;DHT22;59593;51.716;7.016;2022-09-21T10:04:06;15.00;99.90
71754;DHT22;59593;51.716;7.016;2022-09-21T10:06:33;15.20;99.90
71754;DHT22;59593;51.716;7.016;2022-09-21T10:08:59;15.00;99.90
71754;DHT22;59593;51.716;7.016;2022-09-21T10:11:34;15.00;99.90
71754;DHT22;59593;51.716;7.016;2022-09-21T10:14:08;15.40;99.90
71754;DHT22;59593;51.716;7.016;2022-09-21T10:16:39;15.70;99.90
71754;DHT22;59593;51.716;7.016;2022-09-21T10:19:17;15.50;99.90
71754;DHT22;59593;51.716;7.016;2022-09-21T10:21:43;15.70;99.90
71754;DHT22;59593;51.716;7.016;2022-09-21T10:27:12;16.30;99.90
71754;DHT22;59593;51.716;7.016;2022-09-21T10:29:44;16.70;99.90
71754;DHT22;59593;51.716;7.016;2022-09-21T10:37:30;18.10;99.90
71754;DHT22;59593;51.716;7.016;2022-09-21T10:39:59;17.70;99.90
71754;DHT22;59593;51.716;7.016;2022-09-21T10:42:25;18.00;99.90
71754;DHT22;59593;51.716;7.016;2022-09-21T10:45:14;18.90;99.90
71754;DHT22;59593;51.716;7.016;2022-09-21T10:47:51;18.20;99.90
71754;DHT22;59593;51.716;7.016;2022-09-21T10:55:41;18.50;99.90
71754;DHT22;59593;51.716;7.016;2022-09-21T10:58:12;18.70;99.90
71754;DHT22;59593;51.716;7.016;2022-09-21T11:00:46;19.40;99.90
71754;DHT22;59593;51.716;7.016;2022-09-21T11:05:56;19.00;99.90
71754;DHT22;59593;51.716;7.016;2022-09-21T11:13:59;19.50;99.90
71754;DHT22;59593;51.716;7.016;2022-09-21T11:16:53;19.20;99.90
71754;DHT22;59593;51.716;7.016;2022-09-21T11:19:35;18.40;99.90
71754;DHT22;59593;51.716;7.016;2022-09-21T11:25:17;19.20;99.90
71754;DHT22;59593;51.716;7.016;2022-09-21T11:27:48;18.00;99.90
71754;DHT22;59593;51.716;7.016;2022-09-21T11:30:17;17.70;99.90
71754;DHT22;59593;51.716;7.016;2022-09-21T11:35:57;16.90;99.90
71754;DHT22;59593;51.716;7.016;2022-09-21T11:38:35;17.10;99.90
71754;DHT22;59593;51.716;7.016;2022-09-21T11:52:22;17.30;99.90
71754;DHT22;59593;51.716;7.016;2022-09-21T11:58:07;17.20;99.90
71754;DHT22;59593;51.716;7.016;2022-09-21T12:03:53;16.80;99.90
71754;DHT22;59593;51.716;7.016;2022-09-21T12:06:41;17.10;99.90
71754;DHT22;59593;51.716;7.016;2022-09-21T12:11:48;16.80;99.90
71754;DHT22;59593;51.716;7.016;2022-09-21T12:19:57;16.50;99.90
71754;DHT22;59593;51.716;7.016;2022-09-21T12:22:28;16.60;99.90
71754;DHT22;59593;51.716;7.016;2022-09-21T12:25:22;16.70;99.90
71754;DHT22;59593;51.716;7.016;2022-09-21T12:27:52;16.80;99.90
71754;DHT22;59593;51.716;7.016;2022-09-21T12:30:20;16.90;99.90
71754;DHT22;59593;51.716;7.016;2022-09-21T12:35:57;17.10;99.90
71754;DHT22;59593;51.716;7.016;2022-09-21T12:46:34;17.70;99.90
71754;DHT22;59593;51.716;7.016;2022-09-21T12:49:09;17.50;99.90
71754;DHT22;59593;51.716;7.016;2022-09-21T12:51:43;17.30;99.90
71754;DHT22;59593;51.716;7.016;2022-09-21T13:00:10;17.10;99.90
71754;DHT22;59593;51.716;7.016;2022-09-21T13:11:01;17.30;99.90
71754;DHT22;59593;51.716;7.016;2022-09-21T13:13:48;17.50;99.90
71754;DHT22;59593;51.716;7.016;2022-09-21T13:19:20;17.60;99.90
71754;DHT22;59593;51.716;7.016;2022-09-21T13:21:43;17.80;99.90
71754;DHT22;59593;51.716;7.016;2022-09-21T13:24:26;18.60;99.90
71754;DHT22;59593;51.716;7.016;2022-09-21T13:26:55;18.90;99.90
71754;DHT22;59593;51.716;7.016;2022-09-21T13:29:32;19.00;99.90
71754;DHT22;59593;51.716;7.016;2022-09-21T13:34:36;19.50;99.90
71754;DHT22;59593;51.716;7.016;2022-09-21T13:37:22;19.50;99.90
71754;DHT22;59593;51.716;7.016;2022-09-21T13:47:32;21.20;99.90
71754;DHT22;59593;51.716;7.016;2022-09-21T13:50:02;21.60;99.90
71754;DHT22;59593;51.716;7.016;2022-09-21T13:52:46;22.40;99.90
71754;DHT22;59593;51.716;7.016;2022-09-21T13:55:37;21.10;98.90
71754;DHT22;59593;51.716;7.016;2022-09-21T13:58:06;21.40;99.10
71754;DHT22;59593;51.716;7.016;2022-09-21T14:00:49;22.80;97.40
71754;DHT22;59593;51.716;7.016;2022-09-21T14:03:36;20.80;97.20
71754;DHT22;59593;51.716;7.016;2022-09-21T14:06:31;19.60;99.90
71754;DHT22;59593;51.716;7.016;2022-09-21T14:09:16;20.00;99.90
71754;DHT22;59593;51.716;7.016;2022-09-21T14:11:43;19.50;99.30
71754;DHT22;59593;51.716;7.016;2022-09-21T14:14:19;19.70;99.90
71754;DHT22;59593;51.716;7.016;2022-09-21T14:16:49;20.70;99.90
71754;DHT22;59593;51.716;7.016;2022-09-21T14:30:03;19.10;99.90
71754;DHT22;59593;51.716;7.016;2022-09-21T14:35:30;18.60;99.90
71754;DHT22;59593;51.716;7.016;2022-09-21T14:38:03;19.20;99.90
71754;DHT22;59593;51.716;7.016;2022-09-21T14:40:37;18.90;99.90
71754;DHT22;59593;51.716;7.016;2022-09-21T14:43:11;18.80;99.90
71754;DHT22;59593;51.716;7.016;2022-09-21T14:48:25;19.40;99.90
71754;DHT22;59593;51.716;7.016;2022-09-21T14:53:53;18.10;99.90
71754;DHT22;59593;51.716;7.016;2022-09-21T14:59:19;19.10;99.90
71754;DHT22;59593;51.716;7.016;2022-09-21T15:02:00;18.60;99.90
71754;DHT22;59593;51.716;7.016;2022-09-21T15:19:36;18.90;99.10
71754;DHT22;59593;51.716;7.016;2022-09-21T15:22:30;18.90;99.10
71754;DHT22;59593;51.716;7.016;2022-09-21T15:25:01;19.00;99.80
71754;DHT22;59593;51.716;7.016;2022-09-21T15:27:30;19.30;99.10
71754;DHT22;59593;51.716;7.016;2022-09-21T15:30:04;19.50;99.90
71754;DHT22;59593;51.716;7.016;2022-09-21T15:32:37;19.80;99.90
71754;DHT22;59593;51.716;7.016;2022-09-21T15:35:16;20.00;99.90
71754;DHT22;59593;51.716;7.016;2022-09-21T15:37:42;20.30;99.90
71754;DHT22;59593;51.716;7.016;2022-09-21T15:45:28;20.30;99.90
71754;DHT22;59593;51.716;7.016;2022-09-21T15:47:54;20.10;99.90
71754;DHT22;59593;51.716;7.016;2022-09-21T15:50:21;19.60;98.40
71754;DHT22;59593;51.716;7.016;2022-09-21T15:52:55;19.10;99.50
71754;DHT22;59593;51.716;7.016;2022-09-21T15:55:23;19.30;98.70
71754;DHT22;59593;51.716;7.016;2022-09-21T15:57:51;19.40;99.90
71754;DHT22;59593;51.716;7.016;2022-09-21T16:00:20;19.90;99.90
71754;DHT22;59593;51.716;7.016;2022-09-21T16:03:15;20.10;98.90
71754;DHT22;59593;51.716;7.016;2022-09-21T16:05:46;20.00;99.90
71754;DHT22;59593;51.716;7.016;2022-09-21T16:08:31;20.10;99.50
71754;DHT22;59593;51.716;7.016;2022-09-21T16:14:11;20.20;99.90
71754;DHT22;59593;51.716;7.016;2022-09-21T16:22:41;18.90;99.90
71754;DHT22;59593;51.716;7.016;2022-09-21T16:25:21;19.20;99.90
71754;DHT22;59593;51.716;7.016;2022-09-21T16:27:54;18.90;99.90
71754;DHT22;59593;51.716;7.016;2022-09-21T16:30:45;18.80;99.90
71754;DHT22;59593;51.716;7.016;2022-09-21T16:33:34;18.80;99.90
71754;DHT22;59593;51.716;7.016;2022-09-21T16:38:49;18.70;99.70
71754;DHT22;59593;51.716;7.016;2022-09-21T16:41:17;18.30;99.90
71754;DHT22;59593;51.716;7.016;2022-09-21T16:43:43;18.10;99.90
71754;DHT22;59593;51.716;7.016;2022-09-21T16:46:10;18.10;99.90
71754;DHT22;59593;51.716;7.016;2022-09-21T16:48:36;18.10;99.90
71754;DHT22;59593;51.716;7.016;2022-09-21T16:51:02;17.60;99.90
71754;DHT22;59593;51.716;7.016;2022-09-21T16:53:28;17.30;99.90
71754;DHT22;59593;51.716;7.016;2022-09-21T16:55:54;17.20;99.90
71754;DHT22;59593;51.716;7.016;2022-09-21T16:58:22;16.90;99.90
71754;DHT22;59593;51.716;7.016;2022-09-21T17:00:52;16.80;99.90
71754;DHT22;59593;51.716;7.016;2022-09-21T17:03:19;16.60;99.90
71754;DHT22;59593;51.716;7.016;2022-09-21T17:05:45;16.40;99.90
71754;DHT22;59593;51.716;7.016;2022-09-21T17:08:11;16.30;99.90
71754;DHT22;59593;51.716;7.016;2022-09-21T17:10:42;16.10;99.90
71754;DHT22;59593;51.716;7.016;2022-09-21T17:13:09;16.00;99.90
71754;DHT22;59593;51.716;7.016;2022-09-21T17:15:38;15.70;99.90
71754;DHT22;59593;51.716;7.016;2022-09-21T17:18:06;15.50;99.90
71754;DHT22;59593;51.716;7.016;2022-09-21T17:25:53;14.90;99.90
71754;DHT22;59593;51.716;7.016;2022-09-21T17:28:22;14.60;99.90
71754;DHT22;59593;51.716;7.016;2022-09-21T17:30:53;14.50;99.90
71754;DHT22;59593;51.716;7.016;2022-09-21T17:33:19;14.40;99.90
71754;DHT22;59593;51.716;7.016;2022-09-21T17:35:46;14.40;99.90
71754;DHT22;59593;51.716;7.016;2022-09-21T17:38:15;14.30;99.90
71754;DHT22;59593;51.716;7.016;2022-09-21T17:40:42;14.20;99.90
71754;DHT22;59593;51.716;7.016;2022-09-21T17:43:18;14.00;99.90
71754;DHT22;59593;51.716;7.016;2022-09-21T17:45:48;13.90;99.90
71754;DHT22;59593;51.716;7.016;2022-09-21T17:48:18;13.80;99.90
71754;DHT22;59593;51.716;7.016;2022-09-21T17:50:45;13.80;99.90
71754;DHT22;59593;51.716;7.016;2022-09-21T17:53:11;13.80;99.90
71754;DHT22;59593;51.716;7.016;2022-09-21T17:55:57;13.70;99.90
71754;DHT22;59593;51.716;7.016;2022-09-21T17:58:33;13.50;99.90
71754;DHT22;59593;51.716;7.016;2022-09-21T18:01:32;13.50;99.90
71754;DHT22;59593;51.716;7.016;2022-09-21T18:03:56;13.40;99.90
71754;DHT22;59593;51.716;7.016;2022-09-21T18:06:22;13.40;99.90
71754;DHT22;59593;51.716;7.016;2022-09-21T18:08:48;13.30;99.90
71754;DHT22;59593;51.716;7.016;2022-09-21T18:14:07;13.10;99.90
71754;DHT22;59593;51.716;7.016;2022-09-21T18:22:42;12.80;99.90
71754;DHT22;59593;51.716;7.016;2022-09-21T18:25:15;12.80;99.90
71754;DHT22;59593;51.716;7.016;2022-09-21T18:27:42;12.70;99.90
71754;DHT22;59593;51.716;7.016;2022-09-21T18:30:11;12.60;99.90
71754;DHT22;59593;51.716;7.016;2022-09-21T18:41:46;12.20;99.90
71754;DHT22;59593;51.716;7.016;2022-09-21T18:44:38;12.10;99.90
71754;DHT22;59593;51.716;7.016;2022-09-21T18:47:19;12.00;99.90
71754;DHT22;59593;51.716;7.016;2022-09-21T18:50:22;12.00;99.90
71754;DHT22;59593;51.716;7.016;2022-09-21T18:55:31;11.90;99.90
71754;DHT22;59593;51.716;7.016;2022-09-21T18:57:59;11.80;99.90
71754;DHT22;59593;51.716;7.016;2022-09-21T19:00:27;11.70;99.90
71754;DHT22;59593;51.716;7.016;2022-09-21T19:03:00;11.70;99.90
71754;DHT22;59593;51.716;7.016;2022-09-21T19:05:26;11.70;99.90
71754;DHT22;59593;51.716;7.016;2022-09-21T19:10:52;11.60;99.90
71754;DHT22;59593;51.716;7.016;2022-09-21T19:13:41;11.60;99.90
71754;DHT22;59593;51.716;7.016;2022-09-21T19:16:32;11.60;99.90
71754;DHT22;59593;51.716;7.016;2022-09-21T19:25:19;11.50;99.90
71754;DHT22;59593;51.716;7.016;2022-09-21T19:30:16;11.30;99.90
71754;DHT22;59593;51.716;7.016;2022-09-21T19:32:51;11.30;99.90
71754;DHT22;59593;51.716;7.016;2022-09-21T19:35:28;11.30;99.90
71754;DHT22;59593;51.716;7.016;2022-09-21T19:37:56;11.30;99.90
71754;DHT22;59593;51.716;7.016;2022-09-21T19:40:26;11.30;99.90
71754;DHT22;59593;51.716;7.016;2022-09-21T19:45:59;11.30;99.90
71754;DHT22;59593;51.716;7.016;2022-09-21T19:48:34;11.30;99.90
71754;DHT22;59593;51.716;7.016;2022-09-21T19:51:02;11.00;99.90
71754;DHT22;59593;51.716;7.016;2022-09-21T19:53:28;10.90;99.90
71754;DHT22;59593;51.716;7.016;2022-09-21T19:56:14;10.90;99.90
71754;DHT22;59593;51.716;7.016;2022-09-21T19:58:59;10.90;99.90
71754;DHT22;59593;51.716;7.016;2022-09-21T20:01:53;10.80;99.90
71754;DHT22;59593;51.716;7.016;2022-09-21T20:04:35;10.80;99.90
71754;DHT22;59593;51.716;7.016;2022-09-21T20:09:47;10.60;99.90